createdAt,value
2023-04-27T00:01:41.207Z,10.50
2023-04-27T00:04:08.348Z,10.50
2023-04-27T00:06:35.328Z,10.50
2023-04-27T00:09:02.284Z,10.50
2023-04-27T00:11:29.140Z,10.40
2023-04-27T00:13:56.604Z,10.40
2023-04-27T00:16:23.473Z,10.40
2023-04-27T00:18:50.453Z,10.40
2023-04-27T00:21:17.436Z,10.40
2023-04-27T00:23:44.699Z,10.30
2023-04-27T00:26:11.666Z,10.30
2023-04-27T00:28:39.907Z,10.30
2023-04-27T00:31:07.044Z,10.30
2023-04-27T00:33:33.859Z,10.20
2023-04-27T00:36:01.733Z,10.20
2023-04-27T00:38:29.495Z,10.20
2023-04-27T00:41:07.363Z,10.20
2023-04-27T00:43:42.235Z,10.20
2023-04-27T00:46:09.954Z,10.20
2023-04-27T00:48:37.682Z,10.20
2023-04-27T00:51:05.226Z,10.10
2023-04-27T00:53:32.869Z,10.10
2023-04-27T00:55:59.881Z,10.10
2023-04-27T00:58:27.006Z,10.10
2023-04-27T01:00:54.160Z,10.00
2023-04-27T01:03:22.113Z,10.00
2023-04-27T01:05:49.040Z,10.00
2023-04-27T01:08:15.880Z,9.90
2023-04-27T01:10:43.021Z,9.90
2023-04-27T01:13:10.742Z,9.90
2023-04-27T01:15:38.236Z,9.90
2023-04-27T01:18:09.853Z,9.80
2023-04-27T01:20:38.661Z,9.80
2023-04-27T01:23:06.280Z,9.80
2023-04-27T01:25:33.104Z,9.80
2023-04-27T01:28:02.837Z,9.70
2023-04-27T01:30:30.388Z,9.70
2023-04-27T01:32:59.127Z,9.70
2023-04-27T01:35:28.240Z,9.60
2023-04-27T01:38:00.171Z,9.60
2023-04-27T01:40:27.085Z,9.60
2023-04-27T01:42:53.918Z,9.60
2023-04-27T01:45:20.986Z,9.50
2023-04-27T01:47:47.936Z,9.50
2023-04-27T01:50:14.709Z,9.30
2023-04-27T01:52:41.718Z,9.20
2023-04-27T01:55:08.877Z,9.10
2023-04-27T01:57:35.956Z,9.00
2023-04-27T02:00:04.675Z,8.90
2023-04-27T02:02:47.709Z,8.90
2023-04-27T02:05:14.670Z,8.90
2023-04-27T02:07:41.655Z,8.90
2023-04-27T02:10:08.921Z,8.90
2023-04-27T02:12:35.885Z,9.00
2023-04-27T02:15:03.812Z,8.90
2023-04-27T02:17:31.687Z,8.90
2023-04-27T02:19:58.899Z,8.90
2023-04-27T02:22:26.989Z,8.90
2023-04-27T02:24:53.953Z,9.00
2023-04-27T02:27:21.040Z,9.00
2023-04-27T02:29:48.229Z,9.00
2023-04-27T02:32:15.562Z,8.90
2023-04-27T02:34:42.593Z,9.00
2023-04-27T02:37:09.559Z,8.90
2023-04-27T02:39:36.875Z,8.90
2023-04-27T02:42:06.776Z,8.80
2023-04-27T02:44:33.651Z,8.70
2023-04-27T02:47:00.701Z,8.70
2023-04-27T02:49:27.771Z,8.60
2023-04-27T02:51:54.744Z,8.50
2023-04-27T02:54:21.538Z,8.40
2023-04-27T02:56:48.479Z,8.30
2023-04-27T02:59:15.611Z,8.20
2023-04-27T03:01:42.886Z,8.10
2023-04-27T03:04:10.848Z,8.10
2023-04-27T03:06:37.946Z,8.10
2023-04-27T03:09:05.497Z,8.00
2023-04-27T03:11:32.698Z,8.00
2023-04-27T03:13:59.518Z,8.00
2023-04-27T03:16:27.249Z,8.10
2023-04-27T03:18:54.226Z,8.00
2023-04-27T03:21:21.058Z,8.00
2023-04-27T03:23:49.302Z,8.00
2023-04-27T03:26:16.685Z,7.90
2023-04-27T03:28:43.633Z,7.90
2023-04-27T03:31:13.312Z,7.80
2023-04-27T03:33:41.365Z,7.80
2023-04-27T03:36:08.851Z,7.80
2023-04-27T03:38:37.000Z,7.80
2023-04-27T03:41:04.352Z,7.80
2023-04-27T03:43:31.333Z,7.80
2023-04-27T03:45:58.158Z,7.80
2023-04-27T03:48:25.225Z,7.80
2023-04-27T03:50:54.497Z,7.80
2023-04-27T03:53:21.348Z,7.80
2023-04-27T03:55:49.320Z,7.80
2023-04-27T03:58:17.509Z,7.80
2023-04-27T04:01:03.409Z,7.80
2023-04-27T04:03:30.850Z,7.80
2023-04-27T04:05:57.802Z,7.70
2023-04-27T04:08:24.811Z,7.70
2023-04-27T04:10:51.702Z,7.70
2023-04-27T04:13:18.806Z,7.80
2023-04-27T04:15:45.938Z,7.80
2023-04-27T04:18:12.846Z,7.80
2023-04-27T04:20:39.641Z,7.80
2023-04-27T04:23:07.349Z,7.80
2023-04-27T04:25:34.297Z,7.90
2023-04-27T04:28:01.183Z,7.90
2023-04-27T04:30:29.018Z,7.80
2023-04-27T04:32:55.917Z,7.90
2023-04-27T04:35:22.998Z,7.90
2023-04-27T04:37:50.049Z,7.90
2023-04-27T04:40:17.156Z,7.80
2023-04-27T04:42:43.986Z,7.80
2023-04-27T04:45:11.204Z,7.80
2023-04-27T04:47:39.592Z,7.80
2023-04-27T04:50:07.522Z,7.80
2023-04-27T04:52:35.335Z,7.90
2023-04-27T04:55:02.170Z,7.90
2023-04-27T04:57:31.049Z,7.90
2023-04-27T04:59:58.214Z,8.00
2023-04-27T05:02:25.282Z,8.10
2023-04-27T05:04:52.528Z,8.20
2023-04-27T05:07:24.044Z,8.20
2023-04-27T05:09:52.295Z,8.20
2023-04-27T05:12:19.182Z,8.20
2023-04-27T05:14:46.125Z,8.20
2023-04-27T05:17:13.019Z,8.20
2023-04-27T05:19:40.003Z,8.20
2023-04-27T05:22:06.851Z,8.30
2023-04-27T05:24:33.727Z,8.30
2023-04-27T05:27:02.308Z,8.40
2023-04-27T05:29:29.501Z,8.50
2023-04-27T05:31:56.400Z,8.60
2023-04-27T05:34:23.567Z,8.70
2023-04-27T05:36:50.631Z,8.90
2023-04-27T05:39:17.438Z,9.00
2023-04-27T05:41:44.305Z,9.20
2023-04-27T05:44:11.306Z,9.40
2023-04-27T05:46:38.906Z,9.50
2023-04-27T05:49:05.958Z,9.60
2023-04-27T05:51:33.530Z,9.70
2023-04-27T05:54:02.049Z,9.80
2023-04-27T05:56:29.023Z,9.80
2023-04-27T05:58:56.112Z,10.00
2023-04-27T06:01:23.711Z,10.10
2023-04-27T06:03:50.729Z,10.10
2023-04-27T06:06:17.697Z,10.30
2023-04-27T06:08:44.435Z,10.30
2023-04-27T06:11:11.544Z,10.50
2023-04-27T06:13:38.554Z,10.80
2023-04-27T06:16:05.787Z,11.20
2023-04-27T06:18:32.860Z,11.80
2023-04-27T06:21:01.742Z,12.30
2023-04-27T06:23:29.239Z,12.80
2023-04-27T06:25:56.202Z,13.40
2023-04-27T06:28:23.163Z,14.00
2023-04-27T06:30:50.070Z,14.60
2023-04-27T06:33:17.020Z,15.20
2023-04-27T06:35:47.088Z,15.70
2023-04-27T06:38:14.388Z,16.30
2023-04-27T06:40:41.261Z,16.80
2023-04-27T06:43:08.194Z,17.20
2023-04-27T06:45:35.625Z,17.40
2023-04-27T06:48:02.612Z,17.60
2023-04-27T06:50:30.654Z,17.70
2023-04-27T06:52:57.637Z,17.80
2023-04-27T06:55:24.482Z,17.90
2023-04-27T06:57:51.333Z,17.90
2023-04-27T07:00:18.855Z,17.90
2023-04-27T07:02:46.014Z,17.90
2023-04-27T07:05:13.249Z,18.00
2023-04-27T07:07:40.094Z,18.10
2023-04-27T07:10:07.824Z,18.20
2023-04-27T07:12:35.144Z,18.20
2023-04-27T07:15:04.324Z,18.20
2023-04-27T07:17:31.359Z,18.30
2023-04-27T07:19:58.554Z,18.30
2023-04-27T07:22:25.695Z,18.20
2023-04-27T07:24:52.824Z,18.10
2023-04-27T07:27:20.407Z,18.10
2023-04-27T07:29:47.853Z,18.10
2023-04-27T07:32:15.119Z,18.10
2023-04-27T07:34:52.621Z,17.90
2023-04-27T07:37:20.614Z,17.70
2023-04-27T07:39:50.179Z,17.60
2023-04-27T07:42:16.999Z,17.70
2023-04-27T07:44:43.877Z,17.90
2023-04-27T07:47:10.842Z,18.00
2023-04-27T07:49:38.342Z,18.10
2023-04-27T07:52:05.482Z,18.30
2023-04-27T07:54:32.469Z,18.50
2023-04-27T07:56:59.275Z,18.70
2023-04-27T07:59:29.463Z,18.70
2023-04-27T08:02:07.123Z,18.60
2023-04-27T08:04:38.410Z,18.40
2023-04-27T08:07:06.138Z,18.10
2023-04-27T08:09:33.714Z,18.00
2023-04-27T08:12:02.759Z,17.90
2023-04-27T08:14:29.883Z,17.80
2023-04-27T08:16:56.843Z,17.70
2023-04-27T08:19:23.943Z,17.80
2023-04-27T08:21:50.787Z,17.70
2023-04-27T08:24:17.960Z,17.70
2023-04-27T08:26:44.912Z,17.50
2023-04-27T08:29:26.247Z,17.50
2023-04-27T08:31:56.750Z,17.40
2023-04-27T08:34:24.334Z,17.40
2023-04-27T08:36:51.334Z,17.40
2023-04-27T08:39:18.388Z,17.40
2023-04-27T08:41:46.359Z,17.30
2023-04-27T08:44:13.333Z,17.20
2023-04-27T08:46:41.088Z,17.20
2023-04-27T08:49:08.530Z,17.10
2023-04-27T08:51:35.594Z,17.10
2023-04-27T08:54:02.749Z,17.10
2023-04-27T08:56:30.506Z,17.10
2023-04-27T08:58:58.577Z,17.00
2023-04-27T09:01:27.547Z,17.00
2023-04-27T09:03:59.215Z,16.90
2023-04-27T09:06:31.714Z,17.00
2023-04-27T09:08:59.387Z,17.10
2023-04-27T09:11:32.578Z,17.20
2023-04-27T09:14:01.031Z,17.30
2023-04-27T09:16:30.177Z,17.30
2023-04-27T09:18:59.058Z,17.40
2023-04-27T09:21:28.011Z,17.60
2023-04-27T09:23:56.106Z,17.80
2023-04-27T09:26:25.824Z,17.90
2023-04-27T09:28:58.990Z,18.00
2023-04-27T09:31:32.994Z,18.00
2023-04-27T09:34:00.223Z,18.00
2023-04-27T09:36:27.304Z,18.00
2023-04-27T09:38:54.536Z,18.10
2023-04-27T09:41:22.198Z,18.20
2023-04-27T09:43:49.068Z,18.20
2023-04-27T09:46:16.380Z,18.30
2023-04-27T09:48:43.330Z,18.40
2023-04-27T09:51:10.184Z,18.50
2023-04-27T09:53:52.746Z,18.60
2023-04-27T09:56:38.403Z,18.70
2023-04-27T09:59:37.455Z,18.90
2023-04-27T10:02:20.845Z,18.90
2023-04-27T10:05:27.035Z,18.90
2023-04-27T10:07:54.249Z,19.00
2023-04-27T10:10:21.126Z,19.00
2023-04-27T10:13:01.715Z,19.10
2023-04-27T10:15:29.937Z,19.00
2023-04-27T10:18:03.604Z,19.10
2023-04-27T10:20:32.551Z,19.20
2023-04-27T10:23:00.519Z,19.10
2023-04-27T10:25:29.714Z,19.10
2023-04-27T10:28:00.142Z,19.10
2023-04-27T10:30:32.940Z,19.20
2023-04-27T10:33:11.877Z,19.40
2023-04-27T10:35:55.974Z,19.60
2023-04-27T10:38:28.593Z,19.80
2023-04-27T10:41:05.127Z,19.80
2023-04-27T10:43:34.846Z,19.80
2023-04-27T10:46:15.752Z,19.80
2023-04-27T10:48:43.628Z,19.90
2023-04-27T10:51:10.958Z,20.10
2023-04-27T10:53:38.344Z,20.30
2023-04-27T10:56:07.175Z,20.40
2023-04-27T11:01:09.231Z,20.70
2023-04-27T11:03:36.441Z,20.60
2023-04-27T11:06:05.668Z,20.30
2023-04-27T11:08:34.098Z,20.20
2023-04-27T11:11:01.661Z,20.30
2023-04-27T11:13:28.915Z,20.60
2023-04-27T11:15:58.296Z,20.70
2023-04-27T11:18:33.038Z,21.00
2023-04-27T11:21:13.519Z,21.40
2023-04-27T11:23:41.266Z,21.40
2023-04-27T11:26:16.299Z,21.20
2023-04-27T11:28:45.750Z,21.10
2023-04-27T11:31:12.876Z,21.10
2023-04-27T11:33:47.676Z,21.20
2023-04-27T11:36:19.565Z,21.30
2023-04-27T11:38:46.826Z,21.30
2023-04-27T11:41:13.730Z,21.30
2023-04-27T11:43:49.504Z,21.10
2023-04-27T11:46:21.337Z,21.00
2023-04-27T11:48:49.051Z,21.10
2023-04-27T11:51:16.006Z,21.30
2023-04-27T11:53:48.212Z,21.40
2023-04-27T11:56:15.189Z,21.40
2023-04-27T11:58:44.372Z,21.30
2023-04-27T12:01:13.055Z,21.20
2023-04-27T12:03:40.803Z,20.90
2023-04-27T12:06:22.050Z,20.60
2023-04-27T12:08:58.721Z,20.50
2023-04-27T12:11:28.701Z,20.40
2023-04-27T12:13:55.862Z,20.40
2023-04-27T12:16:23.354Z,20.50
2023-04-27T12:18:50.736Z,20.70
2023-04-27T12:21:17.901Z,20.80
2023-04-27T12:23:45.077Z,20.90
2023-04-27T12:26:15.004Z,20.90
2023-04-27T12:28:42.495Z,20.90
2023-04-27T12:31:13.346Z,20.90
2023-04-27T12:33:40.226Z,20.90
2023-04-27T12:36:07.504Z,20.90
2023-04-27T12:38:34.353Z,20.80
2023-04-27T12:41:02.519Z,20.80
2023-04-27T12:43:29.429Z,20.80
2023-04-27T12:45:56.435Z,20.60
2023-04-27T12:48:23.680Z,20.60
2023-04-27T12:50:50.919Z,20.40
2023-04-27T12:53:18.048Z,20.10
2023-04-27T12:55:44.994Z,19.80
2023-04-27T12:58:11.977Z,19.60
2023-04-27T13:00:38.894Z,19.50
2023-04-27T13:03:06.890Z,19.40
2023-04-27T13:05:34.015Z,19.20
2023-04-27T13:08:00.929Z,19.00
2023-04-27T13:10:29.218Z,18.80
2023-04-27T13:12:56.155Z,18.70
2023-04-27T13:15:23.321Z,18.60
2023-04-27T13:17:50.186Z,18.60
2023-04-27T13:20:17.326Z,18.60
2023-04-27T13:22:44.353Z,18.50
2023-04-27T13:25:11.336Z,18.50
2023-04-27T13:27:38.104Z,18.40
2023-04-27T13:30:05.532Z,18.40
2023-04-27T13:32:32.603Z,18.30
2023-04-27T13:34:59.645Z,18.30
2023-04-27T13:37:27.144Z,18.20
2023-04-27T13:39:53.996Z,18.10
2023-04-27T13:42:21.488Z,18.10
2023-04-27T13:44:48.489Z,18.10
2023-04-27T13:47:15.527Z,18.00
2023-04-27T13:49:42.733Z,18.00
2023-04-27T13:52:09.886Z,18.00
2023-04-27T13:54:37.258Z,17.90
2023-04-27T13:57:04.238Z,17.80
2023-04-27T13:59:31.200Z,17.90
2023-04-27T14:01:58.169Z,17.90
2023-04-27T14:04:25.160Z,17.90
2023-04-27T14:06:52.154Z,17.80
2023-04-27T14:09:19.163Z,17.70
2023-04-27T14:11:55.697Z,17.70
2023-04-27T14:14:24.567Z,17.70
2023-04-27T14:16:52.911Z,17.60
2023-04-27T14:19:20.675Z,17.60
2023-04-27T14:21:51.494Z,17.50
2023-04-27T14:24:18.316Z,17.60
2023-04-27T14:26:47.529Z,17.60
2023-04-27T14:29:15.193Z,17.60
2023-04-27T14:31:42.635Z,17.60
2023-04-27T14:34:09.520Z,17.60
2023-04-27T14:36:36.757Z,17.60
2023-04-27T14:39:05.460Z,17.60
2023-04-27T14:41:32.483Z,17.60
2023-04-27T14:43:59.420Z,17.60
2023-04-27T14:46:26.411Z,17.60
2023-04-27T14:48:53.239Z,17.60
2023-04-27T14:51:20.470Z,17.70
2023-04-27T14:53:47.305Z,17.70
2023-04-27T14:56:14.689Z,17.70
2023-04-27T14:58:41.915Z,17.80
2023-04-27T15:01:08.803Z,17.90
2023-04-27T15:03:35.970Z,17.90
2023-04-27T15:06:03.432Z,17.90
2023-04-27T15:08:32.706Z,17.90
2023-04-27T15:11:00.973Z,17.90
2023-04-27T15:13:28.414Z,17.80
2023-04-27T15:15:56.533Z,17.80
2023-04-27T15:18:24.361Z,17.80
2023-04-27T15:20:58.711Z,17.70
2023-04-27T15:23:26.875Z,17.70
2023-04-27T15:25:58.173Z,17.70
2023-04-27T15:28:25.275Z,17.70
2023-04-27T15:30:52.404Z,17.60
2023-04-27T15:33:20.720Z,17.70
2023-04-27T15:35:47.659Z,17.60
2023-04-27T15:38:15.586Z,17.60
2023-04-27T15:40:42.864Z,17.60
2023-04-27T15:43:09.969Z,17.60
2023-04-27T15:45:37.106Z,17.60
2023-04-27T15:48:04.270Z,17.60
2023-04-27T15:50:31.370Z,17.60
2023-04-27T15:52:58.409Z,17.70
2023-04-27T15:55:25.203Z,17.70
2023-04-27T15:57:53.796Z,17.60
2023-04-27T16:00:22.348Z,17.60
2023-04-27T16:02:49.805Z,17.50
2023-04-27T16:05:17.270Z,17.50
2023-04-27T16:07:45.392Z,17.50
2023-04-27T16:10:13.114Z,17.50
2023-04-27T16:12:40.435Z,17.40
2023-04-27T16:15:10.684Z,17.40
2023-04-27T16:17:38.320Z,17.40
2023-04-27T16:20:06.842Z,17.40
2023-04-27T16:22:34.483Z,17.40
2023-04-27T16:25:02.094Z,17.40
2023-04-27T16:27:29.257Z,17.40
2023-04-27T16:29:56.584Z,17.30
2023-04-27T16:32:23.705Z,17.20
2023-04-27T16:34:50.689Z,17.20
2023-04-27T16:37:17.577Z,17.10
2023-04-27T16:39:44.898Z,17.20
2023-04-27T16:42:13.436Z,17.10
2023-04-27T16:44:40.267Z,17.10
2023-04-27T16:47:07.022Z,17.00
2023-04-27T16:49:34.057Z,17.00
2023-04-27T16:52:01.313Z,17.00
2023-04-27T16:54:28.131Z,17.00
2023-04-27T16:56:55.381Z,16.90
2023-04-27T16:59:22.592Z,16.90
2023-04-27T17:01:49.676Z,16.80
2023-04-27T17:04:16.767Z,16.80
2023-04-27T17:06:45.830Z,16.80
2023-04-27T17:09:13.129Z,16.80
2023-04-27T17:11:42.880Z,16.80
2023-04-27T17:14:09.763Z,16.80
2023-04-27T17:16:36.641Z,16.80
2023-04-27T17:19:03.904Z,16.80
2023-04-27T17:21:31.679Z,16.80
2023-04-27T17:23:58.597Z,16.80
2023-04-27T17:26:26.171Z,16.80
2023-04-27T17:28:55.034Z,16.70
2023-04-27T17:31:21.906Z,16.70
2023-04-27T17:33:49.367Z,16.60
2023-04-27T17:36:16.256Z,16.50
2023-04-27T17:38:43.117Z,16.40
2023-04-27T17:41:10.150Z,16.40
2023-04-27T17:43:37.772Z,16.40
2023-04-27T17:46:11.502Z,16.30
2023-04-27T17:48:38.853Z,16.30
2023-04-27T17:51:05.820Z,16.20
2023-04-27T17:53:32.777Z,16.20
2023-04-27T17:56:00.274Z,16.10
2023-04-27T17:58:28.129Z,16.10
2023-04-27T18:00:55.182Z,16.00
2023-04-27T18:03:22.453Z,16.00
2023-04-27T18:05:49.330Z,16.00
2023-04-27T18:08:16.295Z,16.00
2023-04-27T18:10:43.279Z,15.90
2023-04-27T18:13:10.241Z,15.90
2023-04-27T18:15:37.333Z,15.80
2023-04-27T18:18:04.338Z,15.80
2023-04-27T18:20:31.252Z,15.80
2023-04-27T18:22:58.191Z,15.80
2023-04-27T18:25:25.521Z,15.80
2023-04-27T18:27:55.445Z,15.80
2023-04-27T18:30:23.125Z,15.70
2023-04-27T18:32:50.003Z,15.80
2023-04-27T18:35:16.820Z,15.70
2023-04-27T18:37:48.285Z,15.70
2023-04-27T18:40:19.868Z,15.70
2023-04-27T18:42:46.860Z,15.60
2023-04-27T18:45:13.735Z,15.60
2023-04-27T18:47:40.794Z,15.60
2023-04-27T18:50:08.251Z,15.60
2023-04-27T18:52:35.156Z,15.50
2023-04-27T18:55:02.177Z,15.50
2023-04-27T18:57:29.185Z,15.50
2023-04-27T18:59:56.262Z,15.40
2023-04-27T19:02:25.271Z,15.40
2023-04-27T19:05:01.667Z,15.30
2023-04-27T19:07:34.584Z,15.30
2023-04-27T19:10:01.571Z,15.20
2023-04-27T19:12:28.382Z,15.20
2023-04-27T19:14:55.256Z,15.20
2023-04-27T19:17:22.553Z,15.20
2023-04-27T19:19:49.938Z,15.20
2023-04-27T19:22:16.967Z,15.10
2023-04-27T19:24:43.906Z,15.10
2023-04-27T19:27:11.817Z,15.00
2023-04-27T19:29:53.395Z,15.00
2023-04-27T19:32:21.557Z,15.00
2023-04-27T19:34:49.063Z,15.00
2023-04-27T19:37:16.132Z,15.00
2023-04-27T19:39:43.012Z,15.00
2023-04-27T19:42:09.889Z,15.00
2023-04-27T19:44:36.910Z,14.90
2023-04-27T19:47:03.740Z,14.90
2023-04-27T19:49:32.697Z,14.90
2023-04-27T19:52:03.448Z,14.90
2023-04-27T19:54:30.495Z,14.90
2023-04-27T19:56:57.528Z,14.90
2023-04-27T19:59:24.488Z,14.80
2023-04-27T20:01:51.943Z,14.80
2023-04-27T20:04:19.212Z,14.70
2023-04-27T20:06:47.311Z,14.70
2023-04-27T20:09:14.179Z,14.70
2023-04-27T20:11:40.961Z,14.70
2023-04-27T20:14:08.135Z,14.70
2023-04-27T20:16:35.042Z,14.60
2023-04-27T20:19:02.030Z,14.60
2023-04-27T20:21:29.468Z,14.60
2023-04-27T20:23:56.458Z,14.60
2023-04-27T20:26:24.434Z,14.60
2023-04-27T20:28:51.371Z,14.50
2023-04-27T20:31:18.253Z,14.50
2023-04-27T20:33:45.108Z,14.50
2023-04-27T20:36:17.264Z,14.50
2023-04-27T20:38:46.199Z,14.50
2023-04-27T20:41:13.087Z,14.50
2023-04-27T20:43:40.393Z,14.50
2023-04-27T20:46:13.571Z,14.50
2023-04-27T20:48:40.634Z,14.50
2023-04-27T20:51:07.413Z,14.50
2023-04-27T20:53:34.264Z,14.50
2023-04-27T20:56:01.337Z,14.60
2023-04-27T20:58:28.408Z,14.60
2023-04-27T21:00:55.282Z,14.60
2023-04-27T21:03:22.505Z,14.60
2023-04-27T21:05:49.610Z,14.50
2023-04-27T21:08:16.988Z,14.50
2023-04-27T21:10:44.621Z,14.50
2023-04-27T21:13:11.589Z,14.50
2023-04-27T21:15:38.559Z,14.40
2023-04-27T21:18:07.923Z,14.40
2023-04-27T21:20:36.439Z,14.30
2023-04-27T21:23:03.567Z,14.30
2023-04-27T21:25:30.588Z,14.30
2023-04-27T21:27:57.529Z,14.20
2023-04-27T21:30:24.450Z,14.20
2023-04-27T21:32:51.452Z,14.20
2023-04-27T21:35:18.555Z,14.20
2023-04-27T21:37:45.640Z,14.20
2023-04-27T21:40:12.828Z,14.20
2023-04-27T21:42:40.087Z,14.10
2023-04-27T21:45:07.417Z,14.10
2023-04-27T21:47:34.487Z,14.10
2023-04-27T21:50:01.367Z,14.10
2023-04-27T21:52:28.179Z,14.10
2023-04-27T21:54:55.118Z,14.10
2023-04-27T21:57:22.033Z,14.10
2023-04-27T21:59:48.976Z,14.10
2023-04-27T22:02:16.108Z,14.10
2023-04-27T22:04:43.284Z,14.10
2023-04-27T22:07:10.496Z,14.10
2023-04-27T22:09:37.341Z,14.10
2023-04-27T22:12:04.550Z,14.10
2023-04-27T22:14:31.515Z,14.10
2023-04-27T22:17:01.028Z,14.10
2023-04-27T22:19:28.693Z,14.10
2023-04-27T22:21:56.070Z,14.10
2023-04-27T22:24:24.029Z,14.10
2023-04-27T22:26:50.956Z,14.10
2023-04-27T22:29:18.141Z,14.10
2023-04-27T22:31:45.596Z,14.10
2023-04-27T22:34:13.210Z,14.10
2023-04-27T22:36:40.481Z,14.10
2023-04-27T22:39:07.475Z,14.10
2023-04-27T22:41:34.550Z,14.10
2023-04-27T22:44:01.414Z,14.10
2023-04-27T22:46:28.193Z,14.10
2023-04-27T22:48:55.270Z,14.10
2023-04-27T22:51:23.647Z,14.00
2023-04-27T22:53:50.568Z,14.00
2023-04-27T22:56:17.424Z,14.00
2023-04-27T22:58:44.410Z,14.00
2023-04-27T23:01:11.687Z,14.00
2023-04-27T23:03:39.094Z,14.00
2023-04-27T23:06:07.404Z,14.00
2023-04-27T23:08:34.155Z,14.00
2023-04-27T23:11:02.754Z,14.00
2023-04-27T23:13:29.734Z,13.90
2023-04-27T23:15:56.869Z,13.90
2023-04-27T23:18:23.737Z,13.90
2023-04-27T23:20:56.847Z,13.90
2023-04-27T23:23:23.751Z,13.90
2023-04-27T23:25:50.621Z,13.90
2023-04-27T23:28:17.467Z,13.90
2023-04-27T23:30:51.415Z,13.80
2023-04-27T23:33:18.654Z,13.80
2023-04-27T23:35:45.417Z,13.80
2023-04-27T23:38:12.224Z,13.80
2023-04-27T23:40:39.265Z,13.80
2023-04-27T23:43:06.202Z,13.80
2023-04-27T23:45:32.977Z,13.80
2023-04-27T23:48:00.396Z,13.80
2023-04-27T23:50:27.432Z,13.80
2023-04-27T23:52:54.211Z,13.80
2023-04-27T23:55:21.131Z,13.90
2023-04-27T23:57:48.170Z,13.90
